Killeen/Fort Hood, Texas
Current Conditions -  °F | °C
As of 10:56 AM on Thursday 27 Nov 2014 (Local Time) from KHLR Reporting Station
Clear Clear  
Wind Chill: 57°   Ceiling: Unl
Heat Index: 57°   Visibility: 10mi
Dew Point: 22°   Wind: 6mph
Humidity: 26%   Direction: 30°NNE
Pressure: 30.53"   Gusts: NA
Location:  31.15°N, 97.72°W
Report Text: KHLR 271656Z AUTO 03005KT 10SM CLR 14/M06 A3053 RMK AO2 SLP370 T01391056 $
Loading
Personal Weather Stations






























Interactive Weather Map New forecast layout! Learn more

10-Day Weather Forecast

Advertisements
Track Severe Weather on mobile